Time;durP1;ratioP1;P1;durP2;ratioP2;P2;SDS_P1;SDS_P2;PMS_P1;PMS_P2;Temp;Humidity;BMP_temperature;BMP_pressure;BME280_temperature;BME280_humidity;BME280_pressure;Samples;Min_cycle;Max_cycle;Signal;HPM_P1;HPM_P2
2022/11/07 00:01:12;;;;;;;5.44;5.03;;;;;;;6.03;63.96;102217.94;470889;112;922807;-78
2022/11/07 00:02:15;;;;;;;5.49;5.06;;;;;;;6.02;63.87;102217.08;465048;112;922998;-77
2022/11/07 00:03:18;;;;;;;5.31;4.91;;;;;;;6.01;63.87;102209.95;468891;112;922828;-77
2022/11/07 00:04:21;;;;;;;5.37;4.97;;;;;;;6.00;63.97;102208.27;466180;112;922548;-77
2022/11/07 00:05:24;;;;;;;5.76;4.89;;;;;;;6.00;63.97;102213.69;468477;112;922396;-77
2022/11/07 00:06:27;;;;;;;5.32;4.86;;;;;;;6.01;63.98;102215.36;465365;112;922535;-78
2022/11/07 00:07:30;;;;;;;5.51;5.06;;;;;;;6.02;64.05;102210.81;469301;111;922606;-77
2022/11/07 00:08:33;;;;;;;5.39;4.99;;;;;;;6.03;64.04;102216.09;468796;112;922553;-77
2022/11/07 00:09:36;;;;;;;4.94;4.60;;;;;;;6.03;63.95;102209.81;465558;112;923149;-77
2022/11/07 00:10:39;;;;;;;4.92;4.53;;;;;;;6.03;63.94;102209.81;465350;112;923055;-76
2022/11/07 00:11:42;;;;;;;5.66;5.26;;;;;;;6.03;63.93;102209.81;465351;112;923029;-77
2022/11/07 00:12:44;;;;;;;5.18;4.86;;;;;;;6.03;64.06;102210.67;465350;112;922587;-77
2022/11/07 00:13:47;;;;;;;5.24;4.84;;;;;;;6.04;64.06;102209.67;465319;112;922561;-77
2022/11/07 00:14:50;;;;;;;5.46;5.08;;;;;;;6.03;64.16;102207.96;465314;112;922581;-76
2022/11/07 00:15:56;;;;;;;5.58;5.28;;;;;;;6.03;64.20;102207.11;465275;112;922421;-77
2022/11/07 00:16:59;;;;;;;5.92;5.52;;;;;;;6.03;64.06;102204.40;458124;115;922652;-78
2022/11/07 00:18:02;;;;;;;5.21;4.81;;;;;;;6.03;64.06;102207.96;462891;114;922588;-76
2022/11/07 00:19:05;;;;;;;5.31;4.91;;;;;;;6.04;64.16;102200.70;459893;114;922409;-77
2022/11/07 00:20:09;;;;;;;6.07;5.56;;;;;;;6.04;64.08;102200.70;460379;114;922723;-77
2022/11/07 00:21:12;;;;;;;5.09;4.79;;;;;;;6.05;64.08;102205.12;460892;114;923006;-78
2022/11/07 00:22:15;;;;;;;5.51;5.11;;;;;;;6.03;64.10;102197.13;461304;113;930601;-77
2022/11/07 00:23:18;;;;;;;5.91;5.51;;;;;;;6.03;64.12;102196.27;458453;114;922622;-80
2022/11/07 00:24:21;;;;;;;5.60;5.20;;;;;;;6.04;64.21;102197.98;458967;115;922588;-78
2022/11/07 00:25:24;;;;;;;5.64;5.24;;;;;;;6.04;64.17;102192.58;464053;114;922660;-77
2022/11/07 00:26:27;;;;;;;6.47;6.02;;;;;;;6.04;64.15;102198.84;460808;114;922505;-79
2022/11/07 00:27:31;;;;;;;6.22;5.72;;;;;;;6.05;64.24;102197.85;458149;113;922583;-77
2022/11/07 00:28:36;;;;;;;5.86;5.29;;;;;;;6.05;64.28;102194.28;459937;114;930630;-77
2022/11/07 00:29:40;;;;;;;6.46;5.86;;;;;;;6.05;64.30;102203.27;461734;114;923353;-77
2022/11/07 00:30:42;;;;;;;5.87;5.47;;;;;;;6.05;64.28;102189.73;467681;113;923094;-77
2022/11/07 00:31:46;;;;;;;5.91;5.51;;;;;;;6.06;64.31;102196.00;468068;112;922579;-77
2022/11/07 00:32:50;;;;;;;5.61;5.25;;;;;;;6.06;64.39;102196.86;468010;112;922459;-76
2022/11/07 00:33:56;;;;;;;4.98;4.59;;;;;;;6.06;64.36;102199.56;469824;110;923073;-78
2022/11/07 00:34:59;;;;;;;5.35;4.97;;;;;;;6.06;64.30;102196.86;471872;110;923345;-78
2022/11/07 00:36:03;;;;;;;5.28;4.94;;;;;;;6.06;64.32;102196.86;471181;112;930494;-78
2022/11/07 00:37:06;;;;;;;5.49;5.04;;;;;;;6.06;64.28;102199.56;474356;110;922539;-75
2022/11/07 00:38:10;;;;;;;5.32;4.92;;;;;;;6.06;64.28;102204.98;475929;110;930593;-78
2022/11/07 00:39:13;;;;;;;5.28;4.91;;;;;;;6.07;64.34;102203.09;471290;110;922642;-77
2022/11/07 00:40:18;;;;;;;5.46;5.07;;;;;;;6.07;64.27;102201.25;471212;110;922543;-77
2022/11/07 00:41:22;;;;;;;5.04;4.65;;;;;;;6.07;64.38;102197.68;458141;114;922517;-77
2022/11/07 00:42:25;;;;;;;5.46;4.96;;;;;;;6.08;64.33;102204.81;457203;115;922598;-77
2022/11/07 00:43:28;;;;;;;5.01;4.60;;;;;;;6.08;64.30;102199.39;461502;114;922554;-77
2022/11/07 00:44:31;;;;;;;4.90;4.47;;;;;;;6.08;64.26;102194.84;461554;114;922459;-77
2022/11/07 00:45:35;;;;;;;8.34;5.82;;;;;;;6.08;64.22;102197.55;461396;114;922755;-76
2022/11/07 00:46:38;;;;;;;5.24;4.83;;;;;;;6.09;64.16;102198.41;459594;114;922538;-76
2022/11/07 00:47:41;;;;;;;5.96;5.28;;;;;;;6.08;64.15;102194.84;457218;114;922499;-79
2022/11/07 00:48:45;;;;;;;5.69;5.29;;;;;;;6.09;64.14;102201.97;457600;114;922511;-77
2022/11/07 00:49:49;;;;;;;6.64;6.14;;;;;;;6.08;64.13;102191.27;459531;114;922517;-78
2022/11/07 00:50:52;;;;;;;5.82;5.41;;;;;;;6.08;64.19;102184.00;453343;115;923714;-77
2022/11/07 00:51:55;;;;;;;6.05;5.55;;;;;;;6.09;64.13;102191.13;453679;114;922405;-77
2022/11/07 00:52:58;;;;;;;6.58;6.08;;;;;;;6.10;64.02;102189.28;460127;114;922490;-77
2022/11/07 00:54:02;;;;;;;6.79;6.29;;;;;;;6.10;64.00;102186.58;457313;115;922590;-77
2022/11/07 00:55:06;;;;;;;6.99;6.49;;;;;;;6.11;63.98;102191.86;457441;114;922570;-77
2022/11/07 00:56:12;;;;;;;7.06;6.56;;;;;;;6.10;63.98;102184.72;466284;112;922522;-77
2022/11/07 00:57:15;;;;;;;6.82;6.28;;;;;;;6.12;63.93;102196.24;468190;111;922725;-78
2022/11/07 00:58:18;;;;;;;6.13;5.63;;;;;;;6.12;63.91;102187.30;465289;112;922569;-77
2022/11/07 00:59:23;;;;;;;6.69;5.94;;;;;;;6.12;63.84;102188.12;468960;112;923086;-77
2022/11/07 01:00:26;;;;;;;6.66;6.09;;;;;;;6.13;63.81;102180.85;467844;112;922606;-77
2022/11/07 01:01:32;;;;;;;7.05;6.48;;;;;;;6.13;63.76;102184.42;468159;112;923125;-78
2022/11/07 01:02:35;;;;;;;7.18;6.57;;;;;;;6.14;63.84;102186.13;467778;112;923214;-77
2022/11/07 01:05:10;;;;;;;5.94;5.54;;;;;;;6.15;63.67;102184.28;459778;114;922934;-77
2022/11/07 01:06:13;;;;;;;5.64;5.24;;;;;;;6.13;63.72;102181.70;466751;112;922766;-78
2022/11/07 01:07:16;;;;;;;4.87;4.47;;;;;;;6.14;63.71;102183.42;465373;113;923322;-78
2022/11/07 01:08:19;;;;;;;5.09;4.76;;;;;;;6.12;63.67;102182.70;469494;112;923069;-79
2022/11/07 01:09:22;;;;;;;5.44;5.03;;;;;;;6.12;63.60;102181.88;465362;112;922936;-76
2022/11/07 01:10:25;;;;;;;5.09;4.68;;;;;;;6.11;63.64;102181.02;467072;112;923016;-77
2022/11/07 01:11:29;;;;;;;5.74;5.32;;;;;;;6.12;63.70;102181.88;467780;112;923037;-77
2022/11/07 01:12:36;;;;;;;5.08;4.69;;;;;;;6.11;63.72;102183.73;470535;111;923510;-77
2022/11/07 01:13:39;;;;;;;5.21;4.91;;;;;;;6.11;63.75;102181.02;465350;113;922980;-77
2022/11/07 01:14:42;;;;;;;5.18;4.78;;;;;;;6.11;63.85;102177.45;468079;112;922617;-78
2022/11/07 01:15:46;;;;;;;3.99;3.67;;;;;;;6.11;63.80;102180.16;462815;114;922633;-77
2022/11/07 01:16:52;;;;;;;4.18;3.93;;;;;;;6.11;63.90;102175.61;458906;112;930604;-76
2022/11/07 01:17:55;;;;;;;4.08;3.73;;;;;;;6.12;63.84;102174.58;466133;112;922615;-77
2022/11/07 01:18:58;;;;;;;4.51;3.53;;;;;;;6.11;63.77;102170.19;467619;112;922479;-77
2022/11/07 01:20:01;;;;;;;4.15;3.87;;;;;;;6.12;63.82;102171.88;469680;112;922970;-77
2022/11/07 01:21:08;;;;;;;4.16;3.86;;;;;;;6.13;63.72;102170.02;468094;112;922816;-76
2022/11/07 01:22:13;;;;;;;3.66;3.46;;;;;;;6.13;63.69;102176.30;464989;113;923142;-77
2022/11/07 01:23:17;;;;;;;4.09;3.86;;;;;;;6.12;63.66;102171.88;465339;113;922912;-77
2022/11/07 01:24:20;;;;;;;3.94;3.51;;;;;;;6.10;63.66;102171.19;465445;113;923265;-77
2022/11/07 01:25:23;;;;;;;3.97;3.67;;;;;;;6.11;63.67;102172.90;466091;112;930542;-77
2022/11/07 01:26:26;;;;;;;3.16;2.96;;;;;;;6.11;63.69;102167.48;468528;112;922575;-78
2022/11/07 01:27:29;;;;;;;3.72;3.52;;;;;;;6.11;63.59;102167.48;466983;111;922800;-77
2022/11/07 01:28:33;;;;;;;3.91;3.68;;;;;;;6.10;63.53;102164.91;466327;113;922702;-77
2022/11/07 01:29:36;;;;;;;3.60;3.36;;;;;;;6.09;63.55;102172.18;465914;112;922603;-76
2022/11/07 01:30:40;;;;;;;3.54;3.34;;;;;;;6.09;63.65;102164.05;468131;113;922653;-78
2022/11/07 01:31:43;;;;;;;3.56;3.27;;;;;;;6.09;63.68;102161.34;468244;113;922623;-77
2022/11/07 01:32:46;;;;;;;3.44;3.16;;;;;;;6.09;63.51;102161.34;470174;112;922934;-77
2022/11/07 01:33:49;;;;;;;3.29;3.09;;;;;;;6.09;63.48;102169.47;470868;112;922603;-77
2022/11/07 01:34:52;;;;;;;3.46;3.26;;;;;;;6.08;63.49;102166.91;469569;112;922618;-76
2022/11/07 01:36:00;;;;;;;3.54;3.34;;;;;;;6.07;63.45;102173.31;465453;113;922860;-76
2022/11/07 01:37:05;;;;;;;3.36;3.16;;;;;;;6.08;63.45;102172.31;465765;113;922624;-78
2022/11/07 01:38:08;;;;;;;3.13;2.77;;;;;;;6.07;63.45;102174.17;470279;112;923163;-77
2022/11/07 01:39:11;;;;;;;3.37;3.17;;;;;;;6.07;63.51;102171.46;468431;112;923041;-77
2022/11/07 01:40:14;;;;;;;3.13;2.93;;;;;;;6.07;63.48;102170.61;468666;112;922927;-77
2022/11/07 01:41:21;;;;;;;3.25;3.05;;;;;;;6.07;63.48;102166.05;466135;112;922664;-78
2022/11/07 01:42:24;;;;;;;3.21;3.01;;;;;;;6.07;63.52;102166.05;470163;112;923003;-77
2022/11/07 01:43:47;;;;;;;3.27;3.08;;;;;;;6.07;63.57;102168.75;468927;112;922577;-76
2022/11/07 01:44:54;;;;;;;2.81;2.65;;;;;;;6.07;63.54;102162.48;470058;112;930492;-76
2022/11/07 01:45:57;;;;;;;3.03;2.82;;;;;;;6.07;63.40;102165.19;469158;112;922710;-78
2022/11/07 01:47:00;;;;;;;3.06;2.84;;;;;;;6.06;63.44;102163.51;469349;112;922448;-76
2022/11/07 01:48:03;;;;;;;3.58;3.38;;;;;;;6.05;63.48;102159.95;468515;112;922454;-78
2022/11/07 01:49:18;;;;;;;2.67;2.48;;;;;;;6.06;63.36;102152.67;462133;112;922951;-77
2022/11/07 01:50:22;;;;;;;3.14;2.92;;;;;;;6.07;63.42;102159.77;461898;112;922593;-77
2022/11/07 01:51:29;;;;;;;2.89;2.69;;;;;;;6.06;63.33;102160.80;467727;112;922443;-76
2022/11/07 01:52:35;;;;;;;2.84;2.64;;;;;;;6.05;63.22;102156.38;466086;111;922661;-77
2022/11/07 01:53:39;;;;;;;2.93;2.73;;;;;;;6.05;63.24;102151.82;469076;112;922571;-76
2022/11/07 01:54:57;;;;;;;2.91;2.71;;;;;;;6.06;63.15;102155.39;465300;112;922595;-78
2022/11/07 01:56:03;;;;;;;2.83;2.66;;;;;;;6.05;63.17;102154.53;469207;112;922962;-78
2022/11/07 01:57:09;;;;;;;3.02;2.82;;;;;;;6.05;63.04;102146.41;465264;112;922510;-78
2022/11/07 01:58:12;;;;;;;2.70;2.52;;;;;;;6.05;63.04;102142.84;466015;112;922437;-77
2022/11/07 01:59:18;;;;;;;2.97;2.54;;;;;;;6.05;63.09;102148.26;469168;112;922817;-78
2022/11/07 02:00:24;;;;;;;2.58;2.38;;;;;;;6.05;63.08;102149.11;467661;112;922984;-77
2022/11/07 02:01:27;;;;;;;2.49;2.29;;;;;;;6.06;63.05;102155.39;472638;112;922875;-77
2022/11/07 02:02:31;;;;;;;2.52;2.29;;;;;;;6.05;63.03;102149.11;466661;112;922504;-77
2022/11/07 02:03:34;;;;;;;2.12;2.02;;;;;;;6.06;62.97;102152.67;467803;112;922525;-76
2022/11/07 02:04:38;;;;;;;2.44;2.26;;;;;;;6.06;62.95;102150.83;467841;112;922703;-77
2022/11/07 02:05:45;;;;;;;2.26;2.16;;;;;;;6.07;62.96;102149.80;469016;112;923148;-78
2022/11/07 02:06:55;;;;;;;2.97;2.77;;;;;;;6.08;63.07;102151.52;467381;112;922601;-77
2022/11/07 02:07:59;;;;;;;2.50;2.32;;;;;;;6.08;63.05;102146.09;465202;113;922585;-76
2022/11/07 02:09:04;;;;;;;2.51;2.41;;;;;;;6.08;63.04;102151.52;468121;112;923014;-76
2022/11/07 02:10:08;;;;;;;2.79;2.59;;;;;;;6.08;62.93;102153.36;465323;113;922569;-79
2022/11/07 02:11:12;;;;;;;2.77;2.67;;;;;;;6.08;62.89;102148.80;465255;113;922437;-77
2022/11/07 02:12:17;;;;;;;4.12;2.54;;;;;;;6.08;62.86;102147.95;465131;112;922979;-78
2022/11/07 02:13:25;;;;;;;3.05;2.87;;;;;;;6.08;62.92;102147.95;466204;112;922626;-78
2022/11/07 02:14:29;;;;;;;2.30;2.20;;;;;;;6.07;62.99;102149.80;467388;112;922675;-77
2022/11/07 02:15:35;;;;;;;2.62;2.46;;;;;;;6.09;62.97;102149.66;465177;112;923102;-77
2022/11/07 02:16:38;;;;;;;2.52;2.42;;;;;;;6.08;62.95;102148.80;465532;113;922615;-76
2022/11/07 02:17:41;;;;;;;2.29;2.19;;;;;;;6.09;62.99;102150.52;464700;114;922645;-77
2022/11/07 02:18:45;;;;;;;2.22;2.11;;;;;;;6.10;62.97;102149.52;465132;114;922575;-78
2022/11/07 02:19:51;;;;;;;2.52;2.32;;;;;;;6.10;63.06;102146.81;463052;114;923061;-78
2022/11/07 02:20:58;;;;;;;2.53;2.34;;;;;;;6.10;63.00;102148.66;461952;114;922922;-76
2022/11/07 02:22:11;;;;;;;2.42;2.30;;;;;;;6.11;63.01;102153.09;463704;114;922530;-76
2022/11/07 02:23:25;;;;;;;2.97;2.77;;;;;;;6.10;63.01;102152.23;465208;114;922596;-78
2022/11/07 02:24:32;;;;;;;2.35;2.24;;;;;;;6.10;62.92;102154.94;454596;116;923365;-78
2022/11/07 02:25:36;;;;;;;2.39;2.29;;;;;;;6.09;62.93;102152.37;465026;113;922641;-79
2022/11/07 02:26:40;;;;;;;2.48;2.30;;;;;;;6.08;62.94;102150.66;464838;113;923559;-79
2022/11/07 02:27:47;;;;;;;2.78;2.32;;;;;;;6.07;62.94;102155.21;464836;114;922930;-79
2022/11/07 02:28:53;;;;;;;2.51;2.40;;;;;;;6.07;62.95;102155.21;464139;114;922935;-75
2022/11/07 02:30:03;;;;;;;2.34;2.24;;;;;;;6.06;62.95;102158.95;463994;112;923019;-77
2022/11/07 02:31:06;;;;;;;2.49;2.33;;;;;;;6.07;62.97;102154.36;469980;112;922600;-79
2022/11/07 02:32:11;;;;;;;2.12;2.02;;;;;;;6.08;62.99;102164.20;470252;112;922566;-78
2022/11/07 02:33:22;;;;;;;2.87;2.68;;;;;;;6.07;62.96;102157.06;466442;113;922700;-78
2022/11/07 02:34:26;;;;;;;3.28;3.03;;;;;;;6.07;62.89;102163.34;458106;113;922579;-78
2022/11/07 02:35:36;;;;;;;2.78;2.58;;;;;;;6.07;63.14;102157.06;457206;114;922524;-76
2022/11/07 02:36:39;;;;;;;2.49;2.37;;;;;;;6.07;63.14;102157.06;456472;114;930610;-78
2022/11/07 02:37:42;;;;;;;2.78;2.64;;;;;;;6.08;62.97;102164.20;458163;114;922586;-79
2022/11/07 02:38:52;;;;;;;2.56;2.36;;;;;;;6.07;62.90;102157.92;463898;114;923002;-79
2022/11/07 02:39:55;;;;;;;2.64;2.49;;;;;;;6.08;62.90;102162.34;464716;114;930334;-77
2022/11/07 02:41:01;;;;;;;2.64;2.49;;;;;;;6.08;62.91;102154.22;461916;113;922514;-78
2022/11/07 02:42:05;;;;;;;2.48;2.28;;;;;;;6.08;62.89;102151.52;467587;113;922605;-78
2022/11/07 02:43:11;;;;;;;2.76;2.56;;;;;;;6.09;62.80;102149.66;466055;113;922452;-78
2022/11/07 02:44:15;;;;;;;2.49;2.29;;;;;;;6.09;62.88;102158.64;465766;113;923085;-77
2022/11/07 02:45:22;;;;;;;2.46;2.31;;;;;;;6.10;62.83;102151.38;458572;115;923210;-78
2022/11/07 02:46:28;;;;;;;2.16;2.06;;;;;;;6.11;62.90;102158.50;458926;113;923102;-76
2022/11/07 02:47:31;;;;;;;2.60;2.41;;;;;;;6.11;62.87;102153.09;465815;113;922616;-76
2022/11/07 02:48:44;;;;;;;2.85;2.65;;;;;;;6.12;62.85;102163.75;462383;114;922682;-77
2022/11/07 02:49:51;;;;;;;2.64;2.54;;;;;;;6.12;62.86;102155.63;456939;116;923152;-77
2022/11/07 02:50:54;;;;;;;3.02;2.82;;;;;;;6.12;62.84;102158.33;451454;114;923125;-77
2022/11/07 02:51:57;;;;;;;3.19;2.99;;;;;;;6.14;62.69;102166.31;461565;114;922830;-78
2022/11/07 02:53:00;;;;;;;2.81;2.61;;;;;;;6.13;62.68;102157.34;459203;114;923004;-78
2022/11/07 02:54:03;;;;;;;2.46;2.26;;;;;;;6.13;62.68;102154.63;460923;114;922522;-77
2022/11/07 02:55:07;;;;;;;2.61;2.47;;;;;;;6.14;62.56;102152.78;460472;114;922579;-77
2022/11/07 02:56:11;;;;;;;2.32;2.21;;;;;;;6.14;62.57;102152.78;461416;114;922497;-79
2022/11/07 02:57:13;;;;;;;2.52;2.38;;;;;;;6.13;62.56;102149.21;457366;114;922748;-77
2022/11/07 02:58:16;;;;;;;2.69;2.26;;;;;;;6.13;62.48;102154.63;457353;115;922525;-79
2022/11/07 02:59:19;;;;;;;2.20;2.10;;;;;;;6.14;62.50;102150.07;457388;115;922879;-77
2022/11/07 03:00:24;;;;;;;1.95;1.85;;;;;;;6.14;62.52;102152.78;460003;114;922686;-78
2022/11/07 03:01:27;;;;;;;2.19;2.09;;;;;;;6.13;62.43;102151.92;456393;114;923130;-76
2022/11/07 03:02:31;;;;;;;2.02;1.88;;;;;;;6.13;62.39;102149.21;458054;113;922481;-77
2022/11/07 03:03:43;;;;;;;1.90;1.80;;;;;;;6.12;62.48;102144.80;457228;115;922559;-77
2022/11/07 03:04:46;;;;;;;1.81;1.71;;;;;;;6.13;62.43;102148.36;463026;114;923377;-78
2022/11/07 03:05:51;;;;;;;1.97;1.87;;;;;;;6.13;62.45;102149.21;457750;115;922500;-77
2022/11/07 03:06:54;;;;;;;1.93;1.83;;;;;;;6.12;62.49;102142.08;457376;114;922858;-78
2022/11/07 03:07:57;;;;;;;1.95;1.85;;;;;;;6.13;62.41;102146.50;461686;114;923076;-78
2022/11/07 03:09:00;;;;;;;2.10;2.00;;;;;;;6.13;62.28;102145.64;460591;114;922534;-78
2022/11/07 03:10:04;;;;;;;1.81;1.71;;;;;;;6.11;62.11;102145.82;461284;114;922557;-78
2022/11/07 03:11:07;;;;;;;1.88;1.78;;;;;;;6.09;62.02;102142.39;457264;115;922400;-77
2022/11/07 03:12:10;;;;;;;1.95;1.85;;;;;;;6.10;62.12;102151.38;460577;113;930363;-77
2022/11/07 03:13:13;;;;;;;2.14;2.03;;;;;;;6.08;62.08;102140.68;461542;114;923532;-77
2022/11/07 03:14:16;;;;;;;1.93;1.82;;;;;;;6.09;62.13;102153.23;457371;115;922807;-77
2022/11/07 03:15:19;;;;;;;1.78;1.68;;;;;;;6.07;62.10;102147.09;457282;115;930215;-76
2022/11/07 03:16:22;;;;;;;2.04;1.71;;;;;;;6.08;62.03;102139.83;463417;112;922490;-77
2022/11/07 03:17:25;;;;;;;1.94;1.84;;;;;;;6.08;61.94;102131.70;471367;112;922489;-76
2022/11/07 03:18:28;;;;;;;1.67;1.61;;;;;;;6.08;61.97;102134.41;471858;112;922537;-77
2022/11/07 03:19:31;;;;;;;2.23;2.11;;;;;;;6.08;61.93;102137.12;467073;112;922962;-77
2022/11/07 03:20:34;;;;;;;1.90;1.80;;;;;;;6.08;61.85;102140.68;471787;112;922725;-77
2022/11/07 03:21:37;;;;;;;1.72;1.62;;;;;;;6.08;61.79;102135.27;471361;112;922500;-77
2022/11/07 03:22:40;;;;;;;1.64;1.55;;;;;;;6.08;61.87;102140.68;471898;112;922435;-79
2022/11/07 03:23:43;;;;;;;1.81;1.71;;;;;;;6.09;61.80;102145.10;471821;112;922608;-75
2022/11/07 03:24:46;;;;;;;1.69;1.59;;;;;;;6.08;61.71;102143.39;467065;112;922704;-78
2022/11/07 03:25:49;;;;;;;1.61;1.51;;;;;;;6.07;61.59;102147.09;468530;112;922550;-76
2022/11/07 03:26:52;;;;;;;1.76;1.66;;;;;;;6.06;61.52;102142.70;468252;112;922723;-77
2022/11/07 03:27:56;;;;;;;1.82;1.69;;;;;;;6.06;61.59;102142.70;471279;112;923067;-77
2022/11/07 03:28:59;;;;;;;1.88;1.78;;;;;;;6.04;61.63;102147.40;471925;112;922695;-77
2022/11/07 03:30:02;;;;;;;1.84;1.73;;;;;;;6.05;61.61;102143.70;465286;112;923097;-77
2022/11/07 03:31:05;;;;;;;2.61;1.78;;;;;;;6.04;61.70;102141.98;463480;114;922556;-77
2022/11/07 03:32:10;;;;;;;1.89;1.79;;;;;;;6.04;61.61;102144.69;465223;111;922579;-78
2022/11/07 03:33:13;;;;;;;1.95;1.85;;;;;;;6.04;61.70;102141.98;468919;112;922591;-77
2022/11/07 03:34:16;;;;;;;1.87;1.77;;;;;;;6.05;61.67;102140.14;462446;112;923281;-76
2022/11/07 03:35:20;;;;;;;2.32;1.84;;;;;;;6.05;61.73;102143.70;456871;115;922489;-77
2022/11/07 03:36:23;;;;;;;2.55;2.26;;;;;;;6.06;61.65;102142.70;456826;115;922613;-78
2022/11/07 03:38:44;;;;;;;3.04;2.63;;;;;;;6.16;61.53;102137.25;477022;110;946433;-75
2022/11/07 03:39:47;;;;;;;2.54;2.19;;;;;;;6.06;61.43;102137.29;465587;113;923275;-77
2022/11/07 03:40:50;;;;;;;2.43;2.22;;;;;;;6.06;61.46;102139.14;464792;113;922592;-77
2022/11/07 03:41:53;;;;;;;2.61;2.41;;;;;;;6.05;61.33;102135.58;462770;114;922895;-76
2022/11/07 03:42:56;;;;;;;3.11;2.80;;;;;;;6.05;61.34;102138.28;455710;116;922531;-76
2022/11/07 03:43:59;;;;;;;2.76;2.56;;;;;;;6.03;61.30;102137.56;455982;116;923045;-77
2022/11/07 03:45:02;;;;;;;3.44;2.72;;;;;;;6.03;61.23;102132.15;457544;115;922769;-77
2022/11/07 03:46:05;;;;;;;2.82;2.51;;;;;;;6.03;61.25;102134.00;457542;116;922864;-78
2022/11/07 03:47:08;;;;;;;4.40;3.00;;;;;;;6.00;61.14;102135.16;457459;115;922752;-77
2022/11/07 03:48:11;;;;;;;4.86;2.96;;;;;;;5.98;61.18;102128.17;457432;116;922696;-78
2022/11/07 03:49:14;;;;;;;2.40;2.20;;;;;;;5.98;61.23;102133.59;457500;116;922895;-78
2022/11/07 03:50:19;;;;;;;2.69;2.23;;;;;;;5.97;61.19;102140.86;457512;115;922569;-77
2022/11/07 03:51:22;;;;;;;2.50;2.05;;;;;;;5.96;61.18;102130.16;457311;116;922918;-76
2022/11/07 03:52:25;;;;;;;2.54;2.21;;;;;;;5.95;61.34;102137.46;457491;115;922526;-76
2022/11/07 03:53:29;;;;;;;2.30;1.79;;;;;;;5.95;61.23;102136.61;457496;115;922607;-77
2022/11/07 03:54:32;;;;;;;2.16;1.80;;;;;;;5.94;61.22;102140.31;457539;116;922566;-77
2022/11/07 03:55:35;;;;;;;2.03;1.71;;;;;;;5.93;61.27;102131.33;457543;116;922967;-77
2022/11/07 03:56:38;;;;;;;4.06;2.09;;;;;;;5.93;61.36;102141.30;457497;116;923021;-78
2022/11/07 03:57:42;;;;;;;1.73;1.63;;;;;;;5.91;61.30;102143.30;457430;115;922616;-77
2022/11/07 03:58:45;;;;;;;2.11;1.91;;;;;;;5.91;61.36;102143.30;457338;115;930496;-77
2022/11/07 03:59:48;;;;;;;1.93;1.67;;;;;;;5.90;61.47;102142.44;457523;116;922935;-77
2022/11/07 04:00:51;;;;;;;1.84;1.74;;;;;;;5.91;61.41;102137.88;457444;116;922930;-76
2022/11/07 04:01:54;;;;;;;2.29;1.86;;;;;;;5.91;61.37;102144.14;457529;115;922976;-76
2022/11/07 04:02:57;;;;;;;2.43;2.21;;;;;;;5.89;61.48;102132.63;457493;116;922626;-76
2022/11/07 04:04:00;;;;;;;3.04;2.15;;;;;;;5.89;61.49;102140.75;457505;115;922573;-77
2022/11/07 04:05:04;;;;;;;3.01;2.34;;;;;;;5.88;61.44;102143.59;457507;116;922524;-77
2022/11/07 04:06:07;;;;;;;3.39;2.36;;;;;;;5.88;61.43;102139.04;457407;115;922553;-76
2022/11/07 04:07:10;;;;;;;2.60;2.33;;;;;;;5.86;61.46;102147.27;457513;115;922991;-76
2022/11/07 04:08:13;;;;;;;3.19;2.67;;;;;;;5.85;61.51;102139.28;457530;115;922494;-78
2022/11/07 04:09:16;;;;;;;2.89;2.53;;;;;;;5.85;61.58;102141.98;457524;116;922963;-76
2022/11/07 04:10:20;;;;;;;3.35;3.05;;;;;;;5.85;61.63;102136.58;457511;115;922500;-76
2022/11/07 04:18:10;;;;;;;2.33;1.77;;;;;;;5.84;61.92;102134.89;457310;116;922505;-77
2022/11/07 04:19:13;;;;;;;2.20;1.77;;;;;;;5.81;61.97;102136.03;457447;115;922857;-78
2022/11/07 04:20:16;;;;;;;1.76;1.60;;;;;;;5.81;61.97;102129.75;457511;115;922655;-76
2022/11/07 04:21:19;;;;;;;2.44;1.79;;;;;;;5.81;61.90;102135.17;457485;115;922625;-78
2022/11/07 04:22:24;;;;;;;1.76;1.66;;;;;;;5.81;61.86;102132.47;457511;116;923033;-76
2022/11/07 04:23:27;;;;;;;2.38;2.05;;;;;;;5.82;61.85;102134.17;457395;115;922829;-77
2022/11/07 04:24:30;;;;;;;2.16;1.96;;;;;;;5.82;61.89;102134.17;457469;115;922559;-77
2022/11/07 04:28:18;;;;;;;2.19;1.81;;;;;;;5.84;61.72;102129.48;457276;116;922557;-78
2022/11/07 04:29:21;;;;;;;2.42;2.22;;;;;;;5.84;61.66;102130.30;457510;115;922887;-79
2022/11/07 04:30:27;;;;;;;1.61;1.51;;;;;;;5.84;61.76;102132.19;451242;115;922460;-75
2022/11/07 04:31:29;;;;;;;3.16;2.39;;;;;;;5.84;61.79;102138.42;449381;118;922614;-76
2022/11/07 04:32:32;;;;;;;2.11;1.92;;;;;;;5.84;61.72;102127.59;455828;115;923192;-76
2022/11/07 04:33:35;;;;;;;2.72;1.94;;;;;;;5.86;61.71;102127.46;457786;113;922496;-75
2022/11/07 04:34:39;;;;;;;2.58;1.81;;;;;;;5.87;61.56;102131.91;466569;113;922501;-78
2022/11/07 04:35:42;;;;;;;1.99;1.86;;;;;;;5.89;61.47;102123.66;466613;113;922431;-78
2022/11/07 04:36:46;;;;;;;1.83;1.61;;;;;;;5.89;61.42;102131.78;466535;113;922827;-78
2022/11/07 04:37:49;;;;;;;1.86;1.67;;;;;;;5.88;61.44;102121.94;466527;113;922721;-76
2022/11/07 04:38:52;;;;;;;1.80;1.69;;;;;;;5.88;61.38;102120.09;466622;113;922657;-78
2022/11/07 04:39:55;;;;;;;1.81;1.59;;;;;;;5.89;61.34;102129.07;466644;113;922511;-77
2022/11/07 04:40:58;;;;;;;1.80;1.63;;;;;;;5.88;61.34;102124.65;460635;113;922943;-80
2022/11/07 04:42:01;;;;;;;1.60;1.49;;;;;;;5.88;61.24;102122.80;457462;115;922536;-75
2022/11/07 04:43:08;;;;;;;1.46;1.36;;;;;;;5.89;61.29;102120.95;457458;115;922495;-75
2022/11/07 04:44:10;;;;;;;1.55;1.45;;;;;;;5.89;61.16;102123.66;457328;116;923028;-77
2022/11/07 04:45:14;;;;;;;4.64;1.74;;;;;;;5.89;61.11;102123.66;457498;115;922624;-76
2022/11/07 04:46:18;;;;;;;1.77;1.66;;;;;;;5.89;61.15;102119.09;457291;116;922695;-77
2022/11/07 04:47:21;;;;;;;1.67;1.57;;;;;;;5.89;61.18;102129.07;457399;115;923528;-77
2022/11/07 04:48:25;;;;;;;1.81;1.71;;;;;;;5.90;61.07;102126.19;457424;115;922640;-77
2022/11/07 04:49:28;;;;;;;1.83;1.73;;;;;;;5.90;61.05;102128.08;457480;116;922694;-77
2022/11/07 04:50:31;;;;;;;1.47;1.41;;;;;;;5.91;61.07;102124.34;457428;116;922496;-76
2022/11/07 04:51:37;;;;;;;1.55;1.45;;;;;;;5.90;60.99;102128.08;457438;116;922558;-76
2022/11/07 04:52:41;;;;;;;1.61;1.51;;;;;;;5.90;60.99;102128.90;457155;115;922494;-76
2022/11/07 04:53:44;;;;;;;1.97;1.87;;;;;;;5.91;61.05;102127.91;457307;115;922580;-78
2022/11/07 04:54:51;;;;;;;1.59;1.49;;;;;;;5.91;60.94;102133.31;457143;116;930339;-77
2022/11/07 04:55:54;;;;;;;1.62;1.52;;;;;;;5.92;60.94;102128.77;457343;115;922554;-78
2022/11/07 04:56:57;;;;;;;1.61;1.50;;;;;;;5.92;61.01;102134.17;457450;115;923046;-78
2022/11/07 04:58:00;;;;;;;1.72;1.60;;;;;;;5.92;61.01;102134.17;457466;115;922587;-78
2022/11/07 04:59:04;;;;;;;1.81;1.71;;;;;;;5.93;60.96;102136.75;457303;116;923058;-77
2022/11/07 05:00:12;;;;;;;1.52;1.42;;;;;;;5.93;60.96;102136.75;457250;116;922495;-77
2022/11/07 05:01:15;;;;;;;1.72;1.62;;;;;;;5.94;60.87;102126.77;457356;116;922829;-75
2022/11/07 05:02:18;;;;;;;1.63;1.53;;;;;;;5.95;60.89;102139.31;457440;115;922559;-77
2022/11/07 05:03:21;;;;;;;1.40;1.31;;;;;;;5.96;61.00;102140.99;457330;115;922469;-77
2022/11/07 05:04:24;;;;;;;1.62;1.51;;;;;;;5.97;60.89;102138.15;457391;116;930143;-78
2022/11/07 05:05:27;;;;;;;1.70;1.60;;;;;;;5.98;60.81;102139.01;457450;115;922591;-77
2022/11/07 05:06:34;;;;;;;2.55;1.65;;;;;;;5.97;60.92;102132.73;457432;115;922731;-76
2022/11/07 05:07:38;;;;;;;1.66;1.37;;;;;;;5.98;60.82;102133.59;457100;115;922549;-77
2022/11/07 05:08:42;;;;;;;1.67;1.57;;;;;;;5.98;60.85;102136.30;457232;115;923063;-76
2022/11/07 05:09:45;;;;;;;2.87;1.61;;;;;;;6.00;60.94;102139.72;457334;116;930319;-77
2022/11/07 05:10:50;;;;;;;1.64;1.54;;;;;;;6.01;60.90;102136.02;457206;116;922864;-76